METAR Data
IDs: Format: Raw Decoded Include TAF

Data at: 1746 UTC 06 Jul 2020

KM04 061735Z AUTO 05005KT 10SM CLR 31/23 A2998 RMK A01
KM04 061715Z AUTO 10004KT 10SM FEW028 31/24 A2998 RMK A01
KM04 061655Z AUTO 04004KT 10SM CLR 30/24 A2998 RMK A01
KM04 061635Z AUTO 14004KT 10SM CLR 30/23 A2998 RMK A01
KM04 061615Z AUTO 12005KT 10SM CLR 30/24 A2998 RMK A01
KM04 061555Z AUTO 11004G10KT 10SM CLR 29/24 A2999 RMK A01
KM04 061535Z AUTO 12004KT 10SM CLR 29/24 A2998 RMK A01
KM04 061515Z AUTO 10004KT 10SM CLR 29/24 A2998 RMK A01
KM04 061455Z AUTO 00000KT 10SM CLR 28/24 A2998 RMK A01
KM04 061430Z AUTO 00000KT 10SM CLR 27/24 A2999 RMK A01
KM04 061415Z AUTO 00000KT 10SM CLR 26/24 A2999 RMK A01
KM04 061355Z AUTO 00000KT 10SM CLR 26/24 A2999 RMK A01
KM04 061335Z AUTO 00000KT 8SM CLR 26/24 A2999 RMK A01
KM04 061315Z AUTO 00000KT 10SM CLR 25/23 A2999 RMK A01
KM04 061255Z AUTO 00000KT 10SM SCT060 25/23 A2998 RMK A01
KM04 061235Z AUTO 00000KT 10SM BKN060 24/23 A2998 RMK A01
KM04 061215Z AUTO 13003KT 10SM CLR 23/23 A2998 RMK A01
KM04 061155Z AUTO 00000KT 10SM CLR 24/23 A2996 RMK A01
KM04 061135Z AUTO 00000KT 10SM CLR 23/22 A2996 RMK A01
KM04 061115Z AUTO 21005KT 9SM 23/22 A2996 RMK A01
KM04 061055Z AUTO 18004KT 10SM 22/22 A2995 RMK A01
KM04 061035Z AUTO 00000KT 10SM 22/22 A2994 RMK A01
KM04 061010Z AUTO 01003KT 10SM 22/22 A2994 RMK A01
KM04 060955Z AUTO 02003KT 10SM 22/22 A2994 RMK A01
KM04 060935Z AUTO 00000KT 8SM 22/22 A2994 RMK A01
KM04 060915Z AUTO 00000KT 10SM 22/22 A2994 RMK A01
KM04 060855Z AUTO 13003KT 10SM 22/22 A2993 RMK A01
KM04 060835Z AUTO 00000KT 10SM 23/22 A2992 RMK A01
KM04 060815Z AUTO 00000KT 10SM 23/23 A2991 RMK A01
KM04 060755Z AUTO 00000KT 10SM 23/22 A2991 RMK A01
KM04 060735Z AUTO 00000KT 10SM 23/22 A2990 RMK A01
KM04 060715Z AUTO 00000KT 10SM 23/22 A2990 RMK A01
KM04 060655Z AUTO 03003KT 10SM 23/22 A2991 RMK A01
KM04 060635Z AUTO 32005KT 10SM 23/22 A2991 RMK A01
KM04 060615Z AUTO 00000KT 10SM 23/22 A2991 RMK A01
KM04 060555Z AUTO 00000KT 10SM 24/22 A2992 RMK A01
KM04 060535Z AUTO 00000KT 10SM 24/22 A2992 RMK A01
KM04 060515Z AUTO 00000KT 10SM 24/22 A2992 RMK A01
KM04 060455Z AUTO 19003KT 10SM 25/22 A2992 RMK A01
KM04 060435Z AUTO 22003KT 10SM 25/22 A2992 RMK A01
KM04 060415Z AUTO 00000KT 10SM 25/22 A2992 RMK A01
KM04 060355Z AUTO 12003KT 10SM 25/23 A2992 RMK A01
KM04 060335Z AUTO 00000KT 10SM 26/21 A2992 RMK A01
KM04 060315Z AUTO 19003KT 10SM 26/21 A2992 RMK A01
KM04 060255Z AUTO 21003KT 10SM 26/22 A2993 RMK A01
KM04 060235Z AUTO 24004KT 10SM 27/23 A2992 RMK A01
KM04 060215Z AUTO 18004KT 10SM 27/23 A2992 RMK A01
KM04 060155Z AUTO 21004KT 10SM 27/23 A2991 RMK A01
KM04 060135Z AUTO 19003KT 10SM 27/23 A2991 RMK A01
KM04 060115Z AUTO 00000KT 10SM 27/23 A2990 RMK A01
KM04 060055Z AUTO 00000KT 10SM CLR 27/22 A2989 RMK A01
KM04 060035Z AUTO 00000KT 10SM CLR 27/23 A2989 RMK A01
KM04 060015Z AUTO 00000KT 10SM CLR 27/24 A2989 RMK A01
KM04 052355Z AUTO 00000KT 10SM CLR 27/23 A2988 RMK A01
KM04 052335Z AUTO 00000KT 10SM CLR 27/23 A2989 RMK A01
KM04 052315Z AUTO 04006KT 9SM CLR 29/23 A2988 RMK A01
KM04 052255Z AUTO 00000KT 9SM CLR 31/24 A2988 RMK A01
KM04 052235Z AUTO 16004KT 10SM CLR 32/22 A2986 RMK A01
KM04 052215Z AUTO 19004KT 10SM CLR 32/24 A2987 RMK A01
KM04 052155Z AUTO 20005KT 10SM CLR 31/24 A2986 RMK A01
KM04 052130Z AUTO 00000KT 10SM CLR 32/22 A2987 RMK A01
KM04 052115Z AUTO 00000KT 10SM CLR 32/22 A2987 RMK A01
KM04 052055Z AUTO 00000KT 10SM CLR 32/22 A2987 RMK A01
KM04 052035Z AUTO 00000KT 10SM CLR 32/22 A2987 RMK A01
KM04 052015Z AUTO 00000KT 10SM CLR 32/23 A2988 RMK A01
KM04 051955Z AUTO 00000KT 10SM CLR 33/22 A2989 RMK A01
KM04 051935Z AUTO VRB03KT 10SM FEW044 33/23 A2989 RMK A01
KM04 051915Z AUTO 00000KT 10SM SCT043 32/24 A2990 RMK A01
KM04 051855Z AUTO 00000KT 10SM FEW044 32/22 A2991 RMK A01
KM04 051835Z AUTO VRB03KT 10SM CLR 32/23 A2992 RMK A01
KM04 051815Z AUTO 00000KT 10SM CLR 32/22 A2992 RMK A01
KM04 051755Z AUTO 00000KT 10SM CLR 32/22 A2993 RMK A01
KM04 051735Z AUTO 00000KT 10SM CLR 32/21 A2993 RMK A01
KM04 051715Z AUTO 00000KT 10SM CLR 32/22 A2994 RMK A01
KM04 051655Z AUTO 00000KT 10SM CLR 31/20 A2994 RMK A01
KM04 051635Z AUTO 00000KT 10SM CLR 31/21 A2994 RMK A01
KM04 051615Z AUTO 00000KT 10SM CLR 31/22 A2994 RMK A01
KM04 051555Z AUTO 00000KT 10SM CLR 31/22 A2994 RMK A01
KM04 051535Z AUTO 00000KT 10SM CLR 30/21 A2994 RMK A01
KM04 051515Z AUTO 00000KT 10SM CLR 30/22 A2994 RMK A01
KM04 051455Z AUTO 00000KT 10SM CLR 29/23 A2994 RMK A01
KM04 051435Z AUTO 14003KT 10SM CLR 29/24 A2994 RMK A01
KM04 051415Z AUTO 00000KT 10SM CLR 28/24 A2994 RMK A01
KM04 051355Z AUTO 00000KT 9SM CLR 27/24 A2994 RMK A01
KM04 051335Z AUTO 00000KT 9SM CLR 27/24 A2993 RMK A01
KM04 051315Z AUTO 00000KT 8SM CLR 25/24 A2993 RMK A01
KM04 051255Z AUTO 00000KT 7SM CLR 25/24 A2993 RMK A01
KM04 051235Z AUTO 00000KT 7SM CLR 24/23 A2993 RMK A01
KM04 051215Z AUTO 00000KT 5SM BR CLR 23/23 A2993 RMK A01
KM04 051155Z AUTO 00000KT 4SM BR CLR 22/22 A2993 RMK A01
KM04 051135Z AUTO 00000KT 1/2SM FG VV005 21/21 A2992 RMK A01
KM04 051115Z AUTO 00000KT 3SM BR CLR 21/21 A2992 RMK A01
KM04 051055Z AUTO 00000KT 2SM BR CLR 21/21 A2991 RMK A01
KM04 051035Z AUTO 00000KT 4SM BR 21/21 A2990 RMK A01
KM04 051015Z AUTO 00000KT 3SM BR 22/21 A2989 RMK A01
KM04 050955Z AUTO 00000KT 6SM BR 22/21 A2989 RMK A01
KM04 050935Z AUTO 00000KT 5SM BR 21/21 A2989 RMK A01
KM04 050915Z AUTO 00000KT 3SM BR 21/21 A2988 RMK A01
KM04 050855Z AUTO 00000KT 8SM 22/22 A2988 RMK A01
KM04 050835Z AUTO 00000KT 7SM CLR 22/22 A2988 RMK A01
KM04 050815Z AUTO 00000KT 7SM 22/22 A2988 RMK A01
KM04 050755Z AUTO 00000KT 7SM 22/22 A2988 RMK A01
KM04 050735Z AUTO 00000KT 9SM 22/22 A2988 RMK A01
KM04 050715Z AUTO 19004G10KT 6SM BR 23/23 A2989 RMK A01
KM04 050655Z AUTO 00000KT 5SM BR 23/23 A2988 RMK A01
KM04 050635Z AUTO 00000KT 7SM 23/22 A2989 RMK A01
KM04 050615Z AUTO 00000KT 9SM CLR 22/22 A2990 RMK A01
KM04 050555Z AUTO 00000KT 10SM CLR 23/22 A2990 RMK A01